sensor_id;sensor_type;location;lat;lon;timestamp;P1;durP1;ratioP1;P2;durP2;ratioP2
46815;SDS011;32787;53.316;8.670;2022-09-13T00:01:26;14.55;;;7.78;;
46815;SDS011;32787;53.316;8.670;2022-09-13T00:03:52;14.90;;;7.70;;
46815;SDS011;32787;53.316;8.670;2022-09-13T00:06:18;15.30;;;7.63;;
46815;SDS011;32787;53.316;8.670;2022-09-13T00:08:45;21.35;;;8.90;;
46815;SDS011;32787;53.316;8.670;2022-09-13T00:11:24;14.95;;;8.77;;
46815;SDS011;32787;53.316;8.670;2022-09-13T00:13:51;16.77;;;8.70;;
46815;SDS011;32787;53.316;8.670;2022-09-13T00:16:19;14.23;;;8.55;;
46815;SDS011;32787;53.316;8.670;2022-09-13T00:18:46;17.65;;;9.65;;
46815;SDS011;32787;53.316;8.670;2022-09-13T00:21:14;18.98;;;10.48;;
46815;SDS011;32787;53.316;8.670;2022-09-13T00:23:42;17.40;;;10.15;;
46815;SDS011;32787;53.316;8.670;2022-09-13T00:26:10;18.67;;;11.55;;
46815;SDS011;32787;53.316;8.670;2022-09-13T00:28:37;18.25;;;11.23;;
46815;SDS011;32787;53.316;8.670;2022-09-13T00:31:04;23.50;;;11.98;;
46815;SDS011;32787;53.316;8.670;2022-09-13T00:33:32;23.58;;;12.65;;
46815;SDS011;32787;53.316;8.670;2022-09-13T00:36:02;20.38;;;12.73;;
46815;SDS011;32787;53.316;8.670;2022-09-13T00:38:36;22.17;;;13.05;;
46815;SDS011;32787;53.316;8.670;2022-09-13T00:41:03;19.80;;;12.13;;
46815;SDS011;32787;53.316;8.670;2022-09-13T00:49:09;25.02;;;14.05;;
46815;SDS011;32787;53.316;8.670;2022-09-13T00:51:36;21.33;;;13.70;;
46815;SDS011;32787;53.316;8.670;2022-09-13T00:54:03;22.90;;;14.38;;
46815;SDS011;32787;53.316;8.670;2022-09-13T00:56:34;24.85;;;15.20;;
46815;SDS011;32787;53.316;8.670;2022-09-13T00:59:09;26.60;;;15.73;;
46815;SDS011;32787;53.316;8.670;2022-09-13T01:01:40;22.17;;;14.93;;
46815;SDS011;32787;53.316;8.670;2022-09-13T01:04:11;24.67;;;14.55;;
46815;SDS011;32787;53.316;8.670;2022-09-13T01:06:37;26.13;;;15.15;;
46815;SDS011;32787;53.316;8.670;2022-09-13T01:09:04;22.75;;;14.20;;
46815;SDS011;32787;53.316;8.670;2022-09-13T01:11:47;24.00;;;15.70;;
46815;SDS011;32787;53.316;8.670;2022-09-13T01:14:19;24.17;;;15.57;;
46815;SDS011;32787;53.316;8.670;2022-09-13T01:16:48;27.33;;;15.95;;
46815;SDS011;32787;53.316;8.670;2022-09-13T01:19:14;25.80;;;16.02;;
46815;SDS011;32787;53.316;8.670;2022-09-13T01:35:38;32.47;;;17.88;;
46815;SDS011;32787;53.316;8.670;2022-09-13T01:38:13;27.92;;;18.45;;
46815;SDS011;32787;53.316;8.670;2022-09-13T01:41:04;31.55;;;19.17;;
46815;SDS011;32787;53.316;8.670;2022-09-13T01:49:54;28.05;;;18.10;;
46815;SDS011;32787;53.316;8.670;2022-09-13T01:58:10;35.95;;;19.50;;
46815;SDS011;32787;53.316;8.670;2022-09-13T02:00:54;29.90;;;19.20;;
46815;SDS011;32787;53.316;8.670;2022-09-13T02:03:26;29.92;;;19.27;;
46815;SDS011;32787;53.316;8.670;2022-09-13T02:05:58;29.13;;;17.52;;
46815;SDS011;32787;53.316;8.670;2022-09-13T02:08:36;28.35;;;19.15;;
46815;SDS011;32787;53.316;8.670;2022-09-13T02:11:12;28.70;;;18.95;;
46815;SDS011;32787;53.316;8.670;2022-09-13T02:14:24;29.20;;;19.45;;
46815;SDS011;32787;53.316;8.670;2022-09-13T02:16:45;32.13;;;20.15;;
46815;SDS011;32787;53.316;8.670;2022-09-13T02:22:05;31.13;;;19.10;;
46815;SDS011;32787;53.316;8.670;2022-09-13T02:24:41;32.47;;;19.67;;
46815;SDS011;32787;53.316;8.670;2022-09-13T02:27:11;28.73;;;20.05;;
46815;SDS011;32787;53.316;8.670;2022-09-13T02:29:45;31.38;;;18.58;;
46815;SDS011;32787;53.316;8.670;2022-09-13T02:32:21;31.33;;;20.27;;
46815;SDS011;32787;53.316;8.670;2022-09-13T02:37:32;32.05;;;18.70;;
46815;SDS011;32787;53.316;8.670;2022-09-13T02:40:02;29.98;;;19.33;;
46815;SDS011;32787;53.316;8.670;2022-09-13T02:42:36;33.00;;;21.00;;
46815;SDS011;32787;53.316;8.670;2022-09-13T02:45:08;30.38;;;20.80;;
46815;SDS011;32787;53.316;8.670;2022-09-13T03:01:16;32.72;;;21.40;;
46815;SDS011;32787;53.316;8.670;2022-09-13T03:03:42;35.17;;;23.08;;
46815;SDS011;32787;53.316;8.670;2022-09-13T03:06:08;34.63;;;22.27;;
46815;SDS011;32787;53.316;8.670;2022-09-13T03:08:34;35.20;;;22.17;;
46815;SDS011;32787;53.316;8.670;2022-09-13T03:16:35;36.13;;;23.42;;
46815;SDS011;32787;53.316;8.670;2022-09-13T03:30:16;40.00;;;23.30;;
46815;SDS011;32787;53.316;8.670;2022-09-13T03:32:50;37.65;;;23.52;;
46815;SDS011;32787;53.316;8.670;2022-09-13T03:35:36;36.15;;;23.55;;
46815;SDS011;32787;53.316;8.670;2022-09-13T03:38:07;38.72;;;23.60;;
46815;SDS011;32787;53.316;8.670;2022-09-13T03:40:45;34.60;;;22.83;;
46815;SDS011;32787;53.316;8.670;2022-09-13T03:45:50;34.35;;;21.80;;
46815;SDS011;32787;53.316;8.670;2022-09-13T03:48:19;40.75;;;24.33;;
46815;SDS011;32787;53.316;8.670;2022-09-13T03:50:47;36.05;;;24.45;;
46815;SDS011;32787;53.316;8.670;2022-09-13T03:53:14;38.50;;;22.58;;
46815;SDS011;32787;53.316;8.670;2022-09-13T03:55:44;38.10;;;24.52;;
46815;SDS011;32787;53.316;8.670;2022-09-13T03:58:15;41.25;;;24.58;;
46815;SDS011;32787;53.316;8.670;2022-09-13T04:00:42;36.80;;;22.85;;
46815;SDS011;32787;53.316;8.670;2022-09-13T04:03:09;35.40;;;23.40;;
46815;SDS011;32787;53.316;8.670;2022-09-13T04:05:35;40.13;;;23.88;;
46815;SDS011;32787;53.316;8.670;2022-09-13T04:08:02;39.03;;;23.95;;
46815;SDS011;32787;53.316;8.670;2022-09-13T04:10:29;39.00;;;23.85;;
46815;SDS011;32787;53.316;8.670;2022-09-13T04:12:59;41.05;;;24.08;;
46815;SDS011;32787;53.316;8.670;2022-09-13T04:15:25;39.83;;;25.27;;
46815;SDS011;32787;53.316;8.670;2022-09-13T04:20:21;35.22;;;22.35;;
46815;SDS011;32787;53.316;8.670;2022-09-13T04:22:53;42.42;;;24.63;;
46815;SDS011;32787;53.316;8.670;2022-09-13T04:25:20;39.15;;;23.45;;
46815;SDS011;32787;53.316;8.670;2022-09-13T04:27:56;40.72;;;23.95;;
46815;SDS011;32787;53.316;8.670;2022-09-13T04:30:24;40.78;;;24.35;;
46815;SDS011;32787;53.316;8.670;2022-09-13T04:32:50;39.88;;;23.88;;
46815;SDS011;32787;53.316;8.670;2022-09-13T04:35:16;41.08;;;24.30;;
46815;SDS011;32787;53.316;8.670;2022-09-13T04:37:44;41.40;;;25.02;;
46815;SDS011;32787;53.316;8.670;2022-09-13T04:40:10;42.47;;;24.58;;
46815;SDS011;32787;53.316;8.670;2022-09-13T04:42:36;43.63;;;23.60;;
46815;SDS011;32787;53.316;8.670;2022-09-13T04:45:02;42.15;;;24.17;;
46815;SDS011;32787;53.316;8.670;2022-09-13T04:47:28;42.45;;;25.02;;
46815;SDS011;32787;53.316;8.670;2022-09-13T04:49:54;40.45;;;24.13;;
46815;SDS011;32787;53.316;8.670;2022-09-13T04:52:19;39.03;;;23.90;;
46815;SDS011;32787;53.316;8.670;2022-09-13T04:54:45;39.58;;;23.65;;
46815;SDS011;32787;53.316;8.670;2022-09-13T04:57:12;37.80;;;22.98;;
46815;SDS011;32787;53.316;8.670;2022-09-13T04:59:38;39.22;;;23.23;;
46815;SDS011;32787;53.316;8.670;2022-09-13T05:02:04;39.10;;;23.63;;
46815;SDS011;32787;53.316;8.670;2022-09-13T05:04:30;37.13;;;22.85;;
46815;SDS011;32787;53.316;8.670;2022-09-13T05:06:56;38.25;;;23.67;;
46815;SDS011;32787;53.316;8.670;2022-09-13T05:09:23;34.53;;;22.27;;
46815;SDS011;32787;53.316;8.670;2022-09-13T05:11:48;37.28;;;22.85;;
46815;SDS011;32787;53.316;8.670;2022-09-13T05:14:14;38.85;;;23.02;;
46815;SDS011;32787;53.316;8.670;2022-09-13T05:16:40;35.80;;;22.20;;
46815;SDS011;32787;53.316;8.670;2022-09-13T05:19:06;37.45;;;22.38;;
46815;SDS011;32787;53.316;8.670;2022-09-13T05:21:32;32.63;;;20.88;;
46815;SDS011;32787;53.316;8.670;2022-09-13T05:23:57;37.30;;;22.50;;
46815;SDS011;32787;53.316;8.670;2022-09-13T05:26:24;36.10;;;21.75;;
46815;SDS011;32787;53.316;8.670;2022-09-13T05:28:51;32.47;;;21.52;;
46815;SDS011;32787;53.316;8.670;2022-09-13T05:33:45;35.25;;;21.88;;
46815;SDS011;32787;53.316;8.670;2022-09-13T05:36:12;36.30;;;22.48;;
46815;SDS011;32787;53.316;8.670;2022-09-13T05:38:37;33.38;;;20.42;;
46815;SDS011;32787;53.316;8.670;2022-09-13T05:41:04;33.92;;;20.15;;
46815;SDS011;32787;53.316;8.670;2022-09-13T05:43:31;33.42;;;21.10;;
46815;SDS011;32787;53.316;8.670;2022-09-13T05:48:38;29.40;;;19.00;;
46815;SDS011;32787;53.316;8.670;2022-09-13T05:51:05;30.05;;;20.08;;
46815;SDS011;32787;53.316;8.670;2022-09-13T05:53:32;34.30;;;19.40;;
46815;SDS011;32787;53.316;8.670;2022-09-13T05:55:58;32.88;;;19.92;;
46815;SDS011;32787;53.316;8.670;2022-09-13T05:58:24;29.15;;;19.55;;
46815;SDS011;32787;53.316;8.670;2022-09-13T06:00:54;29.48;;;18.52;;
46815;SDS011;32787;53.316;8.670;2022-09-13T06:03:21;27.95;;;18.42;;
46815;SDS011;32787;53.316;8.670;2022-09-13T06:05:47;27.38;;;18.50;;
46815;SDS011;32787;53.316;8.670;2022-09-13T06:08:13;28.58;;;18.23;;
46815;SDS011;32787;53.316;8.670;2022-09-13T06:10:39;28.25;;;18.13;;
46815;SDS011;32787;53.316;8.670;2022-09-13T06:13:05;29.27;;;17.13;;
46815;SDS011;32787;53.316;8.670;2022-09-13T06:15:30;28.30;;;17.27;;
46815;SDS011;32787;53.316;8.670;2022-09-13T06:17:56;26.98;;;17.17;;
46815;SDS011;32787;53.316;8.670;2022-09-13T06:20:22;25.95;;;17.23;;
46815;SDS011;32787;53.316;8.670;2022-09-13T06:22:48;29.55;;;16.77;;
46815;SDS011;32787;53.316;8.670;2022-09-13T06:25:14;26.15;;;16.55;;
46815;SDS011;32787;53.316;8.670;2022-09-13T06:27:40;23.50;;;15.57;;
46815;SDS011;32787;53.316;8.670;2022-09-13T06:30:06;27.23;;;16.17;;
46815;SDS011;32787;53.316;8.670;2022-09-13T06:32:33;24.70;;;16.42;;
46815;SDS011;32787;53.316;8.670;2022-09-13T06:34:59;25.48;;;16.17;;
46815;SDS011;32787;53.316;8.670;2022-09-13T06:37:25;25.55;;;16.67;;
46815;SDS011;32787;53.316;8.670;2022-09-13T06:39:50;23.45;;;15.43;;
46815;SDS011;32787;53.316;8.670;2022-09-13T06:42:16;27.55;;;16.25;;
46815;SDS011;32787;53.316;8.670;2022-09-13T06:44:42;24.73;;;16.17;;
46815;SDS011;32787;53.316;8.670;2022-09-13T06:47:10;26.58;;;16.08;;
46815;SDS011;32787;53.316;8.670;2022-09-13T06:49:36;21.45;;;13.73;;
46815;SDS011;32787;53.316;8.670;2022-09-13T06:52:02;23.45;;;15.93;;
46815;SDS011;32787;53.316;8.670;2022-09-13T06:54:27;23.25;;;15.38;;
46815;SDS011;32787;53.316;8.670;2022-09-13T06:56:53;24.83;;;16.00;;
46815;SDS011;32787;53.316;8.670;2022-09-13T06:59:19;24.80;;;14.82;;
46815;SDS011;32787;53.316;8.670;2022-09-13T07:01:44;24.45;;;15.55;;
46815;SDS011;32787;53.316;8.670;2022-09-13T07:04:14;25.00;;;15.43;;
46815;SDS011;32787;53.316;8.670;2022-09-13T07:06:42;22.65;;;14.23;;
46815;SDS011;32787;53.316;8.670;2022-09-13T07:09:13;24.63;;;14.60;;
46815;SDS011;32787;53.316;8.670;2022-09-13T07:11:42;20.83;;;12.90;;
46815;SDS011;32787;53.316;8.670;2022-09-13T07:14:11;23.45;;;12.90;;
46815;SDS011;32787;53.316;8.670;2022-09-13T07:16:41;18.45;;;11.77;;
46815;SDS011;32787;53.316;8.670;2022-09-13T07:19:11;20.25;;;11.65;;
46815;SDS011;32787;53.316;8.670;2022-09-13T07:21:39;19.65;;;10.77;;
46815;SDS011;32787;53.316;8.670;2022-09-13T07:24:05;21.48;;;11.70;;
46815;SDS011;32787;53.316;8.670;2022-09-13T07:26:31;24.60;;;10.73;;
46815;SDS011;32787;53.316;8.670;2022-09-13T07:28:58;15.57;;;8.48;;
46815;SDS011;32787;53.316;8.670;2022-09-13T07:31:26;13.60;;;8.27;;
46815;SDS011;32787;53.316;8.670;2022-09-13T07:33:55;13.27;;;7.20;;
46815;SDS011;32787;53.316;8.670;2022-09-13T07:36:22;11.98;;;7.35;;
46815;SDS011;32787;53.316;8.670;2022-09-13T07:38:48;14.00;;;6.93;;
46815;SDS011;32787;53.316;8.670;2022-09-13T07:41:16;15.80;;;7.28;;
46815;SDS011;32787;53.316;8.670;2022-09-13T07:43:43;12.70;;;5.70;;
46815;SDS011;32787;53.316;8.670;2022-09-13T07:46:09;11.50;;;5.68;;
46815;SDS011;32787;53.316;8.670;2022-09-13T07:48:38;16.17;;;3.80;;
46815;SDS011;32787;53.316;8.670;2022-09-13T07:53:32;11.73;;;2.72;;
46815;SDS011;32787;53.316;8.670;2022-09-13T07:56:02;10.77;;;2.40;;
46815;SDS011;32787;53.316;8.670;2022-09-13T07:58:33;8.90;;;2.22;;
46815;SDS011;32787;53.316;8.670;2022-09-13T08:01:07;8.32;;;2.17;;
46815;SDS011;32787;53.316;8.670;2022-09-13T08:03:43;12.00;;;2.40;;
46815;SDS011;32787;53.316;8.670;2022-09-13T08:06:14;9.90;;;2.63;;
46815;SDS011;32787;53.316;8.670;2022-09-13T08:08:39;6.47;;;2.10;;
46815;SDS011;32787;53.316;8.670;2022-09-13T08:11:05;10.02;;;2.03;;
46815;SDS011;32787;53.316;8.670;2022-09-13T08:13:31;11.10;;;2.30;;
46815;SDS011;32787;53.316;8.670;2022-09-13T08:16:01;10.65;;;2.63;;
46815;SDS011;32787;53.316;8.670;2022-09-13T08:18:28;7.65;;;2.05;;
46815;SDS011;32787;53.316;8.670;2022-09-13T08:20:55;9.55;;;2.33;;
46815;SDS011;32787;53.316;8.670;2022-09-13T08:23:22;12.10;;;2.30;;
46815;SDS011;32787;53.316;8.670;2022-09-13T08:25:48;5.95;;;1.90;;
46815;SDS011;32787;53.316;8.670;2022-09-13T08:28:14;11.88;;;1.95;;
46815;SDS011;32787;53.316;8.670;2022-09-13T08:30:41;10.50;;;1.77;;
46815;SDS011;32787;53.316;8.670;2022-09-13T08:33:09;7.95;;;1.52;;
46815;SDS011;32787;53.316;8.670;2022-09-13T08:35:35;5.00;;;1.40;;
46815;SDS011;32787;53.316;8.670;2022-09-13T08:38:02;8.77;;;1.60;;
46815;SDS011;32787;53.316;8.670;2022-09-13T08:40:30;9.18;;;1.80;;
46815;SDS011;32787;53.316;8.670;2022-09-13T08:46:13;6.63;;;1.40;;
46815;SDS011;32787;53.316;8.670;2022-09-13T08:48:55;6.60;;;1.60;;
46815;SDS011;32787;53.316;8.670;2022-09-13T08:54:12;5.93;;;1.50;;
46815;SDS011;32787;53.316;8.670;2022-09-13T08:59:39;5.65;;;1.30;;
46815;SDS011;32787;53.316;8.670;2022-09-13T09:08:00;7.90;;;1.20;;
46815;SDS011;32787;53.316;8.670;2022-09-13T09:10:40;11.48;;;1.25;;
46815;SDS011;32787;53.316;8.670;2022-09-13T09:13:16;11.20;;;1.42;;
46815;SDS011;32787;53.316;8.670;2022-09-13T09:15:57;7.85;;;1.20;;
46815;SDS011;32787;53.316;8.670;2022-09-13T09:18:31;7.10;;;1.40;;
46815;SDS011;32787;53.316;8.670;2022-09-13T09:21:02;9.38;;;1.70;;
46815;SDS011;32787;53.316;8.670;2022-09-13T09:23:46;7.57;;;1.13;;
46815;SDS011;32787;53.316;8.670;2022-09-13T09:26:20;5.57;;;1.50;;
46815;SDS011;32787;53.316;8.670;2022-09-13T09:29:00;9.35;;;1.15;;
46815;SDS011;32787;53.316;8.670;2022-09-13T09:37:37;9.30;;;1.10;;
46815;SDS011;32787;53.316;8.670;2022-09-13T09:40:05;7.65;;;1.20;;
46815;SDS011;32787;53.316;8.670;2022-09-13T09:47:52;10.82;;;1.15;;
46815;SDS011;32787;53.316;8.670;2022-09-13T09:50:24;10.18;;;1.40;;
46815;SDS011;32787;53.316;8.670;2022-09-13T09:55:47;8.20;;;1.50;;
46815;SDS011;32787;53.316;8.670;2022-09-13T09:58:16;7.88;;;0.90;;
46815;SDS011;32787;53.316;8.670;2022-09-13T10:00:49;11.20;;;1.27;;
46815;SDS011;32787;53.316;8.670;2022-09-13T10:03:17;12.00;;;1.40;;
46815;SDS011;32787;53.316;8.670;2022-09-13T10:05:48;7.45;;;1.00;;
46815;SDS011;32787;53.316;8.670;2022-09-13T10:08:24;6.25;;;0.90;;
46815;SDS011;32787;53.316;8.670;2022-09-13T10:10:53;7.72;;;1.13;;
46815;SDS011;32787;53.316;8.670;2022-09-13T10:13:27;7.80;;;0.90;;
46815;SDS011;32787;53.316;8.670;2022-09-13T10:16:03;7.40;;;0.73;;
46815;SDS011;32787;53.316;8.670;2022-09-13T10:18:49;4.53;;;0.82;;
46815;SDS011;32787;53.316;8.670;2022-09-13T10:23:44;4.45;;;1.10;;
46815;SDS011;32787;53.316;8.670;2022-09-13T10:26:18;7.57;;;1.08;;
46815;SDS011;32787;53.316;8.670;2022-09-13T10:31:25;4.82;;;1.33;;
46815;SDS011;32787;53.316;8.670;2022-09-13T10:34:00;4.95;;;0.90;;
46815;SDS011;32787;53.316;8.670;2022-09-13T10:36:36;5.70;;;1.10;;
46815;SDS011;32787;53.316;8.670;2022-09-13T10:39:17;6.60;;;1.05;;
46815;SDS011;32787;53.316;8.670;2022-09-13T10:41:49;6.75;;;1.13;;
46815;SDS011;32787;53.316;8.670;2022-09-13T10:47:03;12.07;;;1.27;;
46815;SDS011;32787;53.316;8.670;2022-09-13T10:49:44;9.10;;;0.95;;
46815;SDS011;32787;53.316;8.670;2022-09-13T10:54:53;8.77;;;1.00;;
46815;SDS011;32787;53.316;8.670;2022-09-13T10:57:33;9.43;;;1.27;;
46815;SDS011;32787;53.316;8.670;2022-09-13T11:00:00;7.70;;;0.80;;
46815;SDS011;32787;53.316;8.670;2022-09-13T11:02:36;6.75;;;0.95;;
46815;SDS011;32787;53.316;8.670;2022-09-13T11:05:31;6.68;;;0.90;;
46815;SDS011;32787;53.316;8.670;2022-09-13T11:08:16;7.18;;;1.20;;
46815;SDS011;32787;53.316;8.670;2022-09-13T11:11:14;7.65;;;0.80;;
46815;SDS011;32787;53.316;8.670;2022-09-13T11:17:28;5.85;;;0.80;;
46815;SDS011;32787;53.316;8.670;2022-09-13T11:20:08;6.22;;;1.10;;
46815;SDS011;32787;53.316;8.670;2022-09-13T11:25:41;6.40;;;1.17;;
46815;SDS011;32787;53.316;8.670;2022-09-13T11:39:16;7.82;;;0.95;;
46815;SDS011;32787;53.316;8.670;2022-09-13T11:55:28;7.93;;;1.17;;
46815;SDS011;32787;53.316;8.670;2022-09-13T11:58:03;5.15;;;1.25;;
46815;SDS011;32787;53.316;8.670;2022-09-13T12:05:45;5.20;;;0.82;;
46815;SDS011;32787;53.316;8.670;2022-09-13T12:08:23;5.57;;;0.93;;
46815;SDS011;32787;53.316;8.670;2022-09-13T12:11:03;4.57;;;0.80;;
46815;SDS011;32787;53.316;8.670;2022-09-13T12:13:36;4.03;;;0.80;;
46815;SDS011;32787;53.316;8.670;2022-09-13T12:16:07;9.00;;;0.80;;
46815;SDS011;32787;53.316;8.670;2022-09-13T12:21:08;6.13;;;0.95;;
46815;SDS011;32787;53.316;8.670;2022-09-13T12:26:36;6.28;;;1.02;;
46815;SDS011;32787;53.316;8.670;2022-09-13T12:32:04;4.00;;;0.77;;
46815;SDS011;32787;53.316;8.670;2022-09-13T12:40:10;5.40;;;1.23;;
46815;SDS011;32787;53.316;8.670;2022-09-13T12:49:07;6.65;;;0.90;;
46815;SDS011;32787;53.316;8.670;2022-09-13T12:57:40;4.82;;;0.93;;
46815;SDS011;32787;53.316;8.670;2022-09-13T13:05:43;6.93;;;0.80;;
46815;SDS011;32787;53.316;8.670;2022-09-13T13:10:44;3.55;;;0.60;;
46815;SDS011;32787;53.316;8.670;2022-09-13T13:15:56;7.70;;;1.10;;
46815;SDS011;32787;53.316;8.670;2022-09-13T13:18:44;4.22;;;0.77;;
46815;SDS011;32787;53.316;8.670;2022-09-13T13:26:43;7.10;;;1.00;;
46815;SDS011;32787;53.316;8.670;2022-09-13T13:29:21;8.23;;;1.00;;
46815;SDS011;32787;53.316;8.670;2022-09-13T13:34:28;6.50;;;0.80;;
46815;SDS011;32787;53.316;8.670;2022-09-13T13:42:28;10.40;;;1.10;;
46815;SDS011;32787;53.316;8.670;2022-09-13T13:45:05;4.45;;;0.68;;
46815;SDS011;32787;53.316;8.670;2022-09-13T13:53:36;7.30;;;1.02;;
46815;SDS011;32787;53.316;8.670;2022-09-13T13:56:19;6.65;;;1.00;;
46815;SDS011;32787;53.316;8.670;2022-09-13T13:58:54;9.00;;;1.50;;
46815;SDS011;32787;53.316;8.670;2022-09-13T14:01:38;9.00;;;1.13;;
46815;SDS011;32787;53.316;8.670;2022-09-13T14:07:03;7.72;;;1.10;;
46815;SDS011;32787;53.316;8.670;2022-09-13T14:10:00;10.90;;;1.30;;
46815;SDS011;32787;53.316;8.670;2022-09-13T14:18:06;6.18;;;1.02;;
46815;SDS011;32787;53.316;8.670;2022-09-13T14:20:56;6.35;;;0.98;;
46815;SDS011;32787;53.316;8.670;2022-09-13T14:26:08;10.23;;;1.33;;
46815;SDS011;32787;53.316;8.670;2022-09-13T14:28:36;6.60;;;1.15;;
46815;SDS011;32787;53.316;8.670;2022-09-13T14:31:02;9.93;;;1.70;;
46815;SDS011;32787;53.316;8.670;2022-09-13T14:33:29;7.57;;;1.10;;
46815;SDS011;32787;53.316;8.670;2022-09-13T14:38:35;8.45;;;1.48;;
46815;SDS011;32787;53.316;8.670;2022-09-13T14:41:11;7.03;;;1.20;;
46815;SDS011;32787;53.316;8.670;2022-09-13T14:43:38;8.75;;;1.42;;
46815;SDS011;32787;53.316;8.670;2022-09-13T14:46:09;11.82;;;1.55;;
46815;SDS011;32787;53.316;8.670;2022-09-13T14:51:18;10.85;;;1.20;;
46815;SDS011;32787;53.316;8.670;2022-09-13T14:53:48;9.25;;;1.35;;
46815;SDS011;32787;53.316;8.670;2022-09-13T14:58:53;14.43;;;1.52;;
46815;SDS011;32787;53.316;8.670;2022-09-13T15:01:27;9.23;;;1.33;;
46815;SDS011;32787;53.316;8.670;2022-09-13T15:03:58;7.20;;;1.10;;
46815;SDS011;32787;53.316;8.670;2022-09-13T15:06:26;10.48;;;1.15;;
46815;SDS011;32787;53.316;8.670;2022-09-13T15:08:56;9.80;;;1.33;;
46815;SDS011;32787;53.316;8.670;2022-09-13T15:11:36;11.82;;;1.50;;
46815;SDS011;32787;53.316;8.670;2022-09-13T15:22:14;6.28;;;1.27;;
46815;SDS011;32787;53.316;8.670;2022-09-13T15:24:49;5.82;;;0.98;;
46815;SDS011;32787;53.316;8.670;2022-09-13T15:27:29;8.23;;;1.20;;
46815;SDS011;32787;53.316;8.670;2022-09-13T15:32:43;8.65;;;1.15;;
46815;SDS011;32787;53.316;8.670;2022-09-13T15:35:22;7.50;;;1.20;;
46815;SDS011;32787;53.316;8.670;2022-09-13T15:37:58;8.15;;;1.25;;
46815;SDS011;32787;53.316;8.670;2022-09-13T15:40:24;9.25;;;1.10;;
46815;SDS011;32787;53.316;8.670;2022-09-13T15:42:53;10.88;;;1.35;;
46815;SDS011;32787;53.316;8.670;2022-09-13T15:45:20;10.57;;;0.98;;
46815;SDS011;32787;53.316;8.670;2022-09-13T15:47:47;5.15;;;1.05;;
46815;SDS011;32787;53.316;8.670;2022-09-13T15:50:21;8.57;;;1.13;;
46815;SDS011;32787;53.316;8.670;2022-09-13T15:52:53;8.63;;;1.35;;
46815;SDS011;32787;53.316;8.670;2022-09-13T15:55:19;6.75;;;0.85;;
46815;SDS011;32787;53.316;8.670;2022-09-13T15:57:46;7.25;;;1.08;;
46815;SDS011;32787;53.316;8.670;2022-09-13T16:00:20;8.23;;;1.20;;
46815;SDS011;32787;53.316;8.670;2022-09-13T16:02:48;10.93;;;1.20;;
46815;SDS011;32787;53.316;8.670;2022-09-13T16:05:14;6.90;;;1.27;;
46815;SDS011;32787;53.316;8.670;2022-09-13T16:07:41;8.52;;;1.30;;
46815;SDS011;32787;53.316;8.670;2022-09-13T16:10:26;7.30;;;0.90;;
46815;SDS011;32787;53.316;8.670;2022-09-13T16:12:52;10.23;;;1.15;;
46815;SDS011;32787;53.316;8.670;2022-09-13T16:15:18;6.00;;;0.90;;
46815;SDS011;32787;53.316;8.670;2022-09-13T16:17:44;7.38;;;1.00;;
46815;SDS011;32787;53.316;8.670;2022-09-13T16:20:14;6.00;;;1.05;;
46815;SDS011;32787;53.316;8.670;2022-09-13T16:22:40;5.82;;;0.95;;
46815;SDS011;32787;53.316;8.670;2022-09-13T16:25:06;5.95;;;1.20;;
46815;SDS011;32787;53.316;8.670;2022-09-13T16:27:32;11.80;;;1.58;;
46815;SDS011;32787;53.316;8.670;2022-09-13T16:29:57;7.78;;;0.95;;
46815;SDS011;32787;53.316;8.670;2022-09-13T16:32:23;6.55;;;0.80;;
46815;SDS011;32787;53.316;8.670;2022-09-13T16:34:49;7.38;;;1.25;;
46815;SDS011;32787;53.316;8.670;2022-09-13T16:37:15;5.00;;;0.95;;
46815;SDS011;32787;53.316;8.670;2022-09-13T16:39:42;5.47;;;0.80;;
46815;SDS011;32787;53.316;8.670;2022-09-13T16:42:09;6.95;;;1.02;;
46815;SDS011;32787;53.316;8.670;2022-09-13T16:44:35;6.60;;;0.90;;
46815;SDS011;32787;53.316;8.670;2022-09-13T16:47:01;3.92;;;0.63;;
46815;SDS011;32787;53.316;8.670;2022-09-13T16:49:27;9.25;;;1.20;;
46815;SDS011;32787;53.316;8.670;2022-09-13T16:51:52;5.22;;;0.80;;
46815;SDS011;32787;53.316;8.670;2022-09-13T16:54:18;6.47;;;1.55;;
46815;SDS011;32787;53.316;8.670;2022-09-13T16:56:44;5.70;;;0.80;;
46815;SDS011;32787;53.316;8.670;2022-09-13T16:59:09;4.22;;;0.63;;
46815;SDS011;32787;53.316;8.670;2022-09-13T17:01:36;7.72;;;1.10;;
46815;SDS011;32787;53.316;8.670;2022-09-13T17:04:01;8.90;;;1.10;;
46815;SDS011;32787;53.316;8.670;2022-09-13T17:06:27;8.38;;;1.17;;
46815;SDS011;32787;53.316;8.670;2022-09-13T17:08:54;6.22;;;1.40;;
46815;SDS011;32787;53.316;8.670;2022-09-13T17:11:23;7.22;;;1.00;;
46815;SDS011;32787;53.316;8.670;2022-09-13T17:13:49;8.75;;;1.10;;
46815;SDS011;32787;53.316;8.670;2022-09-13T17:16:20;7.35;;;1.27;;
46815;SDS011;32787;53.316;8.670;2022-09-13T17:18:49;4.22;;;0.88;;
46815;SDS011;32787;53.316;8.670;2022-09-13T17:21:15;8.15;;;1.20;;
46815;SDS011;32787;53.316;8.670;2022-09-13T17:23:41;6.00;;;1.00;;
46815;SDS011;32787;53.316;8.670;2022-09-13T17:26:07;8.40;;;1.17;;
46815;SDS011;32787;53.316;8.670;2022-09-13T17:28:33;5.53;;;0.90;;
46815;SDS011;32787;53.316;8.670;2022-09-13T17:31:00;7.55;;;1.23;;
46815;SDS011;32787;53.316;8.670;2022-09-13T17:33:26;4.93;;;1.00;;
46815;SDS011;32787;53.316;8.670;2022-09-13T17:36:02;7.07;;;1.15;;
46815;SDS011;32787;53.316;8.670;2022-09-13T17:38:29;6.55;;;0.88;;
46815;SDS011;32787;53.316;8.670;2022-09-13T17:40:59;7.57;;;1.10;;
46815;SDS011;32787;53.316;8.670;2022-09-13T17:43:24;6.57;;;1.00;;
46815;SDS011;32787;53.316;8.670;2022-09-13T17:45:50;8.68;;;0.90;;
46815;SDS011;32787;53.316;8.670;2022-09-13T17:48:15;5.93;;;0.70;;
46815;SDS011;32787;53.316;8.670;2022-09-13T17:50:41;9.75;;;1.00;;
46815;SDS011;32787;53.316;8.670;2022-09-13T17:53:07;6.53;;;1.20;;
46815;SDS011;32787;53.316;8.670;2022-09-13T17:55:32;10.80;;;1.20;;
46815;SDS011;32787;53.316;8.670;2022-09-13T17:57:58;6.07;;;0.90;;
46815;SDS011;32787;53.316;8.670;2022-09-13T18:00:23;7.97;;;1.13;;
46815;SDS011;32787;53.316;8.670;2022-09-13T18:02:50;10.63;;;1.00;;
46815;SDS011;32787;53.316;8.670;2022-09-13T18:05:16;6.43;;;1.02;;
46815;SDS011;32787;53.316;8.670;2022-09-13T18:07:41;8.15;;;0.90;;
46815;SDS011;32787;53.316;8.670;2022-09-13T18:10:07;8.70;;;1.35;;
46815;SDS011;32787;53.316;8.670;2022-09-13T18:12:33;5.72;;;0.82;;
46815;SDS011;32787;53.316;8.670;2022-09-13T18:14:58;10.45;;;1.73;;
46815;SDS011;32787;53.316;8.670;2022-09-13T18:17:25;9.15;;;1.05;;
46815;SDS011;32787;53.316;8.670;2022-09-13T18:19:51;7.22;;;1.00;;
46815;SDS011;32787;53.316;8.670;2022-09-13T18:22:16;8.35;;;1.65;;
46815;SDS011;32787;53.316;8.670;2022-09-13T18:24:42;7.20;;;0.98;;
46815;SDS011;32787;53.316;8.670;2022-09-13T18:27:08;8.73;;;1.20;;
46815;SDS011;32787;53.316;8.670;2022-09-13T18:29:33;5.55;;;0.73;;
46815;SDS011;32787;53.316;8.670;2022-09-13T18:31:59;7.78;;;1.25;;
46815;SDS011;32787;53.316;8.670;2022-09-13T18:34:25;7.35;;;1.00;;
46815;SDS011;32787;53.316;8.670;2022-09-13T18:36:51;7.50;;;1.08;;
46815;SDS011;32787;53.316;8.670;2022-09-13T18:39:20;7.20;;;1.30;;
46815;SDS011;32787;53.316;8.670;2022-09-13T18:41:46;5.85;;;0.93;;
46815;SDS011;32787;53.316;8.670;2022-09-13T18:44:13;9.70;;;1.13;;
46815;SDS011;32787;53.316;8.670;2022-09-13T18:46:39;6.07;;;0.95;;
46815;SDS011;32787;53.316;8.670;2022-09-13T18:49:05;10.23;;;0.90;;
46815;SDS011;32787;53.316;8.670;2022-09-13T18:51:32;9.20;;;1.40;;
46815;SDS011;32787;53.316;8.670;2022-09-13T18:54:00;6.50;;;1.20;;